createdAt,value
2019-01-18T00:00:39.094Z,18.83
2019-01-18T00:03:08.144Z,10.80
2019-01-18T00:05:37.063Z,12.43
2019-01-18T00:08:06.459Z,15.00
2019-01-18T00:10:35.416Z,11.57
2019-01-18T00:13:04.411Z,12.20
2019-01-18T00:15:33.388Z,11.23
2019-01-18T00:18:02.326Z,11.33
2019-01-18T00:20:31.303Z,8.87
2019-01-18T00:23:00.099Z,9.97
2019-01-18T00:25:29.349Z,9.97
2019-01-18T00:27:58.635Z,10.20
2019-01-18T00:30:27.584Z,9.20
2019-01-18T00:32:56.442Z,7.83
2019-01-18T00:35:24.819Z,20.37
2019-01-18T00:37:53.686Z,11.67
2019-01-18T00:40:23.087Z,10.00
2019-01-18T00:42:52.257Z,18.80
2019-01-18T00:45:21.244Z,17.10
2019-01-18T00:47:50.223Z,20.67
2019-01-18T00:50:19.483Z,15.60
2019-01-18T00:52:48.375Z,11.03
2019-01-18T00:55:17.349Z,8.30
2019-01-18T00:57:46.399Z,11.23
2019-01-18T01:00:18.389Z,11.83
2019-01-18T01:02:47.623Z,15.57
2019-01-18T01:05:17.303Z,11.00
2019-01-18T01:07:46.322Z,17.50
2019-01-18T01:10:15.301Z,10.93
2019-01-18T01:12:44.701Z,11.50
2019-01-18T01:15:15.743Z,9.10
2019-01-18T01:17:44.744Z,11.43
2019-01-18T01:20:15.760Z,13.90
2019-01-18T01:22:44.685Z,14.03
2019-01-18T01:25:13.770Z,17.00
2019-01-18T01:27:43.238Z,22.33
2019-01-18T01:30:16.887Z,16.93
2019-01-18T01:32:45.844Z,22.70
2019-01-18T01:35:15.274Z,31.33
2019-01-18T01:37:44.239Z,19.83
2019-01-18T01:40:15.951Z,25.20
2019-01-18T01:42:44.845Z,23.20
2019-01-18T01:45:14.123Z,25.90
2019-01-18T01:47:43.092Z,31.00
2019-01-18T01:50:14.461Z,31.73
2019-01-18T01:52:43.661Z,26.90
2019-01-18T01:55:12.700Z,27.63
2019-01-18T01:57:41.508Z,29.87
2019-01-18T02:00:18.626Z,31.63
2019-01-18T02:02:47.819Z,31.23
2019-01-18T02:05:17.004Z,27.83
2019-01-18T02:07:46.206Z,30.03
2019-01-18T02:10:16.232Z,27.17
2019-01-18T02:12:45.254Z,33.27
2019-01-18T02:15:18.910Z,28.07
2019-01-18T02:17:47.881Z,39.30
2019-01-18T02:20:18.975Z,27.70
2019-01-18T02:22:47.999Z,36.77
2019-01-18T02:25:16.937Z,23.77
2019-01-18T02:27:46.315Z,29.67
2019-01-18T02:30:26.923Z,31.43
2019-01-18T02:32:55.880Z,29.03
2019-01-18T02:35:24.747Z,24.90
2019-01-18T02:37:53.897Z,34.70
2019-01-18T02:40:23.184Z,25.60
2019-01-18T02:42:52.064Z,31.50
2019-01-18T02:45:22.319Z,26.90
2019-01-18T02:47:51.690Z,27.70
2019-01-18T02:50:20.812Z,32.23
2019-01-18T02:52:49.809Z,26.03
2019-01-18T02:55:19.173Z,31.57
2019-01-18T02:57:48.023Z,27.93
2019-01-18T03:00:23.948Z,33.67
2019-01-18T03:02:52.896Z,27.97
2019-01-18T03:05:24.265Z,26.70
2019-01-18T03:07:53.580Z,30.00
2019-01-18T03:10:24.910Z,29.10
2019-01-18T03:12:53.787Z,35.97
2019-01-18T03:15:23.145Z,35.83
2019-01-18T03:17:52.112Z,32.10
2019-01-18T03:20:21.082Z,31.40
2019-01-18T03:22:49.991Z,31.77
2019-01-18T03:25:24.315Z,36.17
2019-01-18T03:27:53.484Z,32.70
2019-01-18T03:30:22.343Z,31.60
2019-01-18T03:32:51.236Z,35.10
2019-01-18T03:35:21.203Z,47.20
2019-01-18T03:37:50.178Z,27.47
2019-01-18T03:40:19.375Z,30.20
2019-01-18T03:42:48.892Z,31.70
2019-01-18T03:45:18.869Z,28.73
2019-01-18T03:47:48.064Z,25.60
2019-01-18T03:50:26.060Z,25.70
2019-01-18T03:52:54.996Z,39.00
2019-01-18T03:55:24.159Z,28.60
2019-01-18T03:57:53.277Z,36.40
2019-01-18T04:00:26.165Z,32.87
2019-01-18T04:02:55.071Z,27.73
2019-01-18T04:05:24.192Z,21.67
2019-01-18T04:07:53.124Z,25.50
2019-01-18T04:10:22.110Z,28.93
2019-01-18T04:12:51.104Z,25.90
2019-01-18T04:15:21.039Z,25.87
2019-01-18T04:17:50.258Z,28.80
2019-01-18T04:20:19.239Z,25.40
2019-01-18T04:22:48.224Z,31.37
2019-01-18T04:25:22.704Z,28.80
2019-01-18T04:27:51.559Z,24.10
2019-01-18T04:30:21.505Z,23.80
2019-01-18T04:32:50.639Z,21.97
2019-01-18T04:35:19.709Z,27.47
2019-01-18T04:37:48.768Z,18.70
2019-01-18T04:40:19.809Z,24.27
2019-01-18T04:42:48.686Z,25.70
2019-01-18T04:45:17.630Z,19.50
2019-01-18T04:47:46.527Z,21.70
2019-01-18T04:50:17.167Z,28.87
2019-01-18T04:52:46.395Z,22.17
2019-01-18T04:55:15.661Z,23.53
2019-01-18T04:57:44.619Z,31.10
2019-01-18T05:00:21.959Z,23.33
2019-01-18T05:02:51.036Z,22.70
2019-01-18T05:05:19.969Z,34.53
2019-01-18T05:07:48.910Z,22.20
2019-01-18T05:10:18.852Z,28.03
2019-01-18T05:12:47.808Z,25.33
2019-01-18T05:15:27.705Z,23.20
2019-01-18T05:17:56.555Z,29.07
2019-01-18T05:20:25.844Z,21.73
2019-01-18T05:23:02.688Z,28.13
2019-01-18T05:25:31.515Z,26.83
2019-01-18T05:28:00.424Z,26.10
2019-01-18T05:30:30.187Z,25.30
2019-01-18T05:32:59.099Z,30.07
2019-01-18T05:35:28.401Z,28.40
2019-01-18T05:37:57.356Z,26.50
2019-01-18T05:40:27.045Z,28.03
2019-01-18T05:42:55.936Z,25.63
2019-01-18T05:45:25.058Z,37.90
2019-01-18T05:47:54.303Z,31.37
2019-01-18T05:50:25.551Z,26.03
2019-01-18T05:52:54.619Z,21.20
2019-01-18T05:55:23.500Z,28.53
2019-01-18T05:57:52.552Z,27.90
2019-01-18T06:00:38.775Z,34.07
2019-01-18T06:03:07.727Z,23.37
2019-01-18T06:05:39.134Z,26.07
2019-01-18T06:08:08.011Z,29.33
2019-01-18T06:10:36.949Z,32.60
2019-01-18T06:13:05.983Z,30.30
2019-01-18T06:15:34.823Z,28.10
2019-01-18T06:18:03.769Z,38.63
2019-01-18T06:20:33.068Z,27.57
2019-01-18T06:23:02.222Z,32.20
2019-01-18T06:25:31.402Z,33.20
2019-01-18T06:28:00.304Z,39.87
2019-01-18T06:30:29.434Z,35.07
2019-01-18T06:32:58.362Z,27.17
2019-01-18T06:35:27.456Z,30.20
2019-01-18T06:37:56.462Z,32.57
2019-01-18T06:40:25.375Z,33.27
2019-01-18T06:42:54.343Z,36.23
2019-01-18T06:45:23.628Z,35.43
2019-01-18T06:47:52.509Z,34.57
2019-01-18T06:50:21.722Z,41.10
2019-01-18T06:52:50.647Z,50.80
2019-01-18T06:55:19.606Z,31.67
2019-01-18T06:57:48.735Z,40.13
2019-01-18T07:00:20.436Z,39.30
2019-01-18T07:02:49.887Z,43.00
2019-01-18T07:05:18.795Z,39.73
2019-01-18T07:07:47.997Z,38.67
2019-01-18T07:10:20.869Z,55.00
2019-01-18T07:12:48.635Z,46.63
2019-01-18T07:15:17.660Z,52.97
2019-01-18T07:17:46.610Z,39.60
2019-01-18T07:20:16.523Z,40.20
2019-01-18T07:22:45.475Z,41.40
2019-01-18T07:25:28.478Z,41.87
2019-01-18T07:27:57.377Z,38.77
2019-01-18T07:30:38.363Z,43.93
2019-01-18T07:33:10.029Z,38.50
2019-01-18T07:35:39.312Z,41.80
2019-01-18T07:38:08.274Z,37.37
2019-01-18T07:40:37.156Z,46.10
2019-01-18T07:43:06.330Z,38.83
2019-01-18T07:45:35.464Z,49.33
2019-01-18T07:48:05.518Z,45.33
2019-01-18T07:50:35.416Z,44.08
2019-01-18T07:53:05.139Z,49.87
2019-01-18T07:55:34.089Z,49.50
2019-01-18T07:58:03.154Z,60.10
2019-01-18T08:00:32.607Z,45.20
2019-01-18T08:03:01.410Z,53.80
2019-01-18T08:05:31.676Z,61.40
2019-01-18T08:08:03.205Z,51.60
2019-01-18T08:10:32.163Z,51.47
2019-01-18T08:13:01.276Z,55.50
2019-01-18T08:15:30.792Z,51.50
2019-01-18T08:17:59.730Z,65.83
2019-01-18T08:20:30.156Z,58.77
2019-01-18T08:22:59.442Z,53.90
2019-01-18T08:25:28.330Z,51.57
2019-01-18T08:27:57.711Z,55.73
2019-01-18T08:30:28.351Z,57.80
2019-01-18T08:32:57.669Z,56.60
2019-01-18T08:35:27.145Z,61.27
2019-01-18T08:37:56.042Z,65.10
2019-01-18T08:40:39.271Z,63.57
2019-01-18T08:43:10.327Z,59.30
2019-01-18T08:45:51.178Z,67.83
2019-01-18T08:48:20.358Z,73.47
2019-01-18T08:50:49.401Z,59.47
2019-01-18T08:53:18.774Z,50.40
2019-01-18T08:55:47.740Z,57.47
2019-01-18T08:58:16.723Z,60.40
2019-01-18T09:00:45.600Z,53.60
2019-01-18T09:03:14.491Z,58.30
2019-01-18T09:05:43.961Z,60.30
2019-01-18T09:08:13.539Z,54.70
2019-01-18T09:10:42.756Z,71.80
2019-01-18T09:13:11.784Z,58.53
2019-01-18T09:15:41.526Z,58.70
2019-01-18T09:18:11.079Z,53.57
2019-01-18T09:20:40.747Z,49.80
2019-01-18T09:23:09.558Z,52.67
2019-01-18T09:25:38.434Z,55.70
2019-01-18T09:28:07.725Z,56.20
2019-01-18T09:30:36.770Z,42.33
2019-01-18T09:33:07.770Z,52.73
2019-01-18T09:35:37.392Z,46.83
2019-01-18T09:38:10.044Z,47.33
2019-01-18T09:40:39.009Z,45.03
2019-01-18T09:43:07.972Z,45.67
2019-01-18T09:45:37.136Z,46.10
2019-01-18T09:48:07.898Z,50.63
2019-01-18T09:50:36.804Z,32.17
2019-01-18T09:53:06.991Z,32.20
2019-01-18T09:55:36.240Z,67.40
2019-01-18T09:58:06.088Z,40.43
2019-01-18T10:00:37.047Z,39.63
2019-01-18T10:03:06.764Z,36.27
2019-01-18T10:05:35.750Z,35.03
2019-01-18T10:08:06.684Z,50.70
2019-01-18T10:10:35.573Z,34.53
2019-01-18T10:13:04.555Z,37.93
2019-01-18T10:15:41.511Z,33.73
2019-01-18T10:18:10.628Z,45.17
2019-01-18T10:20:39.510Z,37.60
2019-01-18T10:23:08.537Z,31.27
2019-01-18T10:25:37.392Z,34.03
2019-01-18T10:28:06.384Z,42.67
2019-01-18T10:30:35.500Z,34.17
2019-01-18T10:33:04.471Z,41.27
2019-01-18T10:35:33.456Z,46.80
2019-01-18T10:38:02.323Z,55.73
2019-01-18T10:40:32.379Z,58.07
2019-01-18T10:43:01.259Z,38.80
2019-01-18T10:45:30.049Z,51.63
2019-01-18T10:48:00.053Z,34.57
2019-01-18T10:50:31.019Z,37.23
2019-01-18T10:53:00.080Z,47.73
2019-01-18T10:55:29.590Z,38.87
2019-01-18T10:57:58.931Z,40.33
2019-01-18T11:00:34.096Z,39.03
2019-01-18T11:03:02.984Z,38.50
2019-01-18T11:05:31.878Z,41.83
2019-01-18T11:08:01.146Z,49.97
2019-01-18T11:10:30.013Z,45.80
2019-01-18T11:12:58.881Z,35.00
2019-01-18T11:15:31.017Z,52.57
2019-01-18T11:17:59.895Z,36.70
2019-01-18T11:20:55.902Z,47.77
2019-01-18T11:23:25.023Z,55.27
2019-01-18T11:25:53.902Z,42.83
2019-01-18T11:28:22.734Z,58.40
2019-01-18T11:30:51.884Z,49.53
2019-01-18T11:33:20.743Z,32.00
2019-01-18T11:35:49.652Z,43.13
2019-01-18T11:38:18.552Z,39.57
2019-01-18T11:40:47.519Z,37.70
2019-01-18T11:43:16.427Z,35.47
2019-01-18T11:45:45.231Z,42.77
2019-01-18T11:48:14.201Z,41.17
2019-01-18T11:50:43.412Z,30.73
2019-01-18T11:53:13.074Z,26.77
2019-01-18T11:55:41.879Z,38.33
2019-01-18T11:58:10.803Z,30.63
2019-01-18T12:00:39.677Z,24.60
2019-01-18T12:03:08.585Z,38.50
2019-01-18T12:05:38.012Z,31.10
2019-01-18T12:08:07.170Z,35.30
2019-01-18T12:10:36.074Z,39.27
2019-01-18T12:13:05.330Z,36.37
2019-01-18T12:15:34.380Z,27.23
2019-01-18T12:18:03.365Z,26.60
2019-01-18T12:20:35.142Z,45.20
2019-01-18T12:23:04.322Z,32.03
2019-01-18T12:25:33.699Z,39.60
2019-01-18T12:28:02.898Z,38.17
2019-01-18T12:30:34.195Z,47.13
2019-01-18T12:33:03.631Z,34.50
2019-01-18T12:35:32.610Z,29.40
2019-01-18T12:38:01.856Z,50.80
2019-01-18T12:40:31.014Z,42.03
2019-01-18T12:42:59.982Z,32.33
2019-01-18T12:45:28.947Z,28.23
2019-01-18T12:47:58.268Z,22.27
2019-01-18T12:50:35.567Z,30.13
2019-01-18T12:53:04.986Z,30.93
2019-01-18T12:55:34.087Z,20.23
2019-01-18T12:58:02.998Z,27.77
2019-01-18T13:00:32.005Z,25.73
2019-01-18T13:03:01.194Z,27.87
2019-01-18T13:05:33.294Z,27.43
2019-01-18T13:08:02.498Z,22.70
2019-01-18T13:10:31.382Z,18.30
2019-01-18T13:13:00.355Z,26.13
2019-01-18T13:15:38.623Z,29.70
2019-01-18T13:18:07.773Z,19.40
2019-01-18T13:20:36.798Z,23.20
2019-01-18T13:23:05.860Z,18.27
2019-01-18T13:25:35.191Z,41.47
2019-01-18T13:28:04.474Z,16.80
2019-01-18T13:30:33.365Z,32.37
2019-01-18T13:33:02.284Z,17.07
2019-01-18T13:35:31.683Z,18.03
2019-01-18T13:38:00.531Z,22.03
2019-01-18T13:40:29.406Z,23.50
2019-01-18T13:42:58.810Z,20.87
2019-01-18T13:45:27.679Z,21.30
2019-01-18T13:47:57.100Z,24.60
2019-01-18T13:50:26.055Z,18.70
2019-01-18T13:52:54.959Z,16.80
2019-01-18T13:55:25.335Z,16.00
2019-01-18T13:57:54.768Z,23.50
2019-01-18T14:00:23.706Z,27.00
2019-01-18T14:02:52.610Z,17.67
2019-01-18T14:05:21.570Z,21.67
2019-01-18T14:07:53.391Z,17.23
2019-01-18T14:10:23.775Z,14.97
2019-01-18T14:12:52.834Z,14.37
2019-01-18T14:15:22.615Z,22.00
2019-01-18T14:17:51.947Z,45.33
2019-01-18T14:20:21.497Z,38.23
2019-01-18T14:22:51.031Z,19.93
2019-01-18T14:25:20.732Z,21.63
2019-01-18T14:27:50.289Z,27.13
2019-01-18T14:30:21.817Z,25.70
2019-01-18T14:32:55.328Z,18.97
2019-01-18T14:35:21.914Z,22.87
2019-01-18T14:37:50.897Z,16.43
2019-01-18T14:40:19.955Z,25.17
2019-01-18T14:42:49.395Z,27.37
2019-01-18T14:45:26.834Z,21.60
2019-01-18T14:47:56.131Z,22.00
2019-01-18T14:50:25.615Z,15.10
2019-01-18T14:52:54.722Z,17.43
2019-01-18T14:55:25.312Z,26.57
2019-01-18T14:57:54.284Z,20.83
2019-01-18T15:00:30.285Z,18.37
2019-01-18T15:03:02.369Z,18.30
2019-01-18T15:05:29.854Z,18.93
2019-01-18T15:07:58.847Z,15.83
2019-01-18T15:10:27.729Z,21.17
2019-01-18T15:13:02.244Z,29.60
2019-01-18T15:15:31.539Z,38.20
2019-01-18T15:18:00.439Z,23.07
2019-01-18T15:20:31.236Z,25.67
2019-01-18T15:23:00.292Z,24.23
2019-01-18T15:25:29.240Z,35.93
2019-01-18T15:27:58.458Z,24.53
2019-01-18T15:30:28.840Z,36.43
2019-01-18T15:32:57.846Z,30.23
2019-01-18T15:35:40.900Z,28.23
2019-01-18T15:38:11.147Z,31.00
2019-01-18T15:40:44.206Z,37.23
2019-01-18T15:43:14.934Z,30.20
2019-01-18T15:45:43.905Z,34.30
2019-01-18T15:48:12.947Z,27.93
2019-01-18T15:50:42.189Z,39.80
2019-01-18T15:53:11.275Z,33.73
2019-01-18T15:55:40.217Z,45.97
2019-01-18T15:58:09.502Z,43.57
2019-01-18T16:00:40.447Z,32.60
2019-01-18T16:03:15.651Z,32.90
2019-01-18T16:05:40.099Z,37.30
2019-01-18T16:08:10.186Z,31.97
2019-01-18T16:10:39.041Z,35.77
2019-01-18T16:13:09.645Z,33.93
2019-01-18T16:15:42.564Z,31.43
2019-01-18T16:18:12.981Z,40.57
2019-01-18T16:20:41.869Z,41.43
2019-01-18T16:23:10.782Z,31.03
2019-01-18T16:25:39.627Z,28.43
2019-01-18T16:28:08.687Z,30.30
2019-01-18T16:30:37.509Z,38.30
2019-01-18T16:33:06.692Z,38.23
2019-01-18T16:35:35.598Z,35.00
2019-01-18T16:38:08.139Z,34.93
2019-01-18T16:40:37.120Z,30.50
2019-01-18T16:43:19.086Z,34.23
2019-01-18T16:45:48.190Z,31.80
2019-01-18T16:48:17.133Z,37.90
2019-01-18T16:50:46.251Z,31.87
2019-01-18T16:53:15.246Z,30.33
2019-01-18T16:55:44.390Z,31.63
2019-01-18T16:58:13.248Z,30.23
2019-01-18T17:00:43.194Z,31.10
2019-01-18T17:03:12.020Z,36.13
2019-01-18T17:05:40.891Z,33.73
2019-01-18T17:08:11.326Z,29.40
2019-01-18T17:10:40.244Z,35.60
2019-01-18T17:13:09.206Z,23.37
2019-01-18T17:15:38.112Z,31.10
2019-01-18T17:18:07.176Z,36.90
2019-01-18T17:20:38.997Z,35.37
2019-01-18T17:23:07.931Z,26.37
2019-01-18T17:25:36.952Z,31.13
2019-01-18T17:28:06.179Z,34.50
2019-01-18T17:30:35.962Z,32.90
2019-01-18T17:33:05.658Z,28.00
2019-01-18T17:35:54.663Z,25.03
2019-01-18T17:39:01.780Z,32.80
2019-01-18T17:42:30.197Z,25.07
2019-01-18T17:45:38.306Z,27.17
2019-01-18T17:48:50.072Z,23.57
2019-01-18T17:51:50.198Z,26.70
2019-01-18T17:55:11.663Z,30.93
2019-01-18T17:58:08.344Z,28.60
2019-01-18T18:01:00.460Z,23.87
2019-01-18T18:04:22.177Z,26.37
2019-01-18T18:07:35.315Z,26.80
2019-01-18T18:10:23.580Z,22.47
2019-01-18T18:13:25.049Z,26.50
2019-01-18T18:16:39.800Z,33.50
2019-01-18T18:19:29.534Z,51.73
2019-01-18T18:22:29.450Z,31.20
2019-01-18T18:25:31.006Z,32.03
2019-01-18T18:28:29.843Z,22.00
2019-01-18T18:31:20.345Z,29.67
2019-01-18T18:34:38.637Z,22.03
2019-01-18T18:37:44.906Z,26.40
2019-01-18T18:40:57.476Z,28.43
2019-01-18T18:43:55.926Z,29.27
2019-01-18T18:46:52.086Z,32.07
2019-01-18T18:49:46.163Z,31.63
2019-01-18T18:52:53.767Z,32.07
2019-01-18T18:55:55.673Z,30.90
2019-01-18T18:58:46.906Z,34.60
2019-01-18T19:01:48.139Z,29.77
2019-01-18T19:04:46.690Z,30.00
2019-01-18T19:07:48.764Z,29.87
2019-01-18T19:10:57.690Z,26.60
2019-01-18T19:14:11.140Z,27.43
2019-01-18T19:17:30.340Z,31.03
2019-01-18T19:20:33.912Z,33.10
2019-01-18T19:23:14.622Z,23.87
2019-01-18T19:26:12.491Z,25.33
2019-01-18T19:29:22.470Z,23.60
2019-01-18T19:32:44.896Z,33.47
2019-01-18T19:35:39.046Z,27.60
2019-01-18T19:39:16.806Z,32.43
2019-01-18T19:42:13.704Z,39.10
2019-01-18T19:45:03.643Z,30.17
2019-01-18T19:47:39.638Z,23.67
2019-01-18T19:50:46.136Z,29.03
2019-01-18T19:53:52.332Z,28.83
2019-01-18T19:56:57.580Z,29.93
2019-01-18T19:59:42.015Z,24.13
2019-01-18T20:02:52.226Z,29.57
2019-01-18T20:05:50.547Z,32.83
2019-01-18T20:08:40.561Z,33.00
2019-01-18T20:12:03.058Z,28.60
2019-01-18T20:15:01.703Z,29.40
2019-01-18T20:18:16.333Z,27.03
2019-01-18T20:21:44.676Z,29.57
2019-01-18T20:24:54.136Z,31.77
2019-01-18T20:27:55.005Z,21.67
2019-01-18T20:30:57.634Z,33.47
2019-01-18T20:33:47.669Z,30.73
2019-01-18T20:36:47.024Z,26.20
2019-01-18T20:39:26.219Z,36.50
2019-01-18T20:42:28.355Z,46.03
2019-01-18T20:45:41.127Z,29.03
2019-01-18T20:48:46.560Z,26.23
2019-01-18T20:51:40.643Z,37.50
2019-01-18T20:54:50.362Z,29.53
2019-01-18T20:58:03.748Z,27.73
2019-01-18T21:00:42.929Z,34.30
2019-01-18T21:03:47.051Z,25.13
2019-01-18T21:06:46.476Z,26.20
2019-01-18T21:09:43.702Z,35.37
2019-01-18T21:13:11.835Z,35.23
2019-01-18T21:16:11.027Z,25.60
2019-01-18T21:19:33.390Z,24.83
2019-01-18T21:22:31.620Z,28.47
2019-01-18T21:25:33.316Z,38.40
2019-01-18T21:28:57.084Z,32.20
2019-01-18T21:31:50.161Z,25.10
2019-01-18T21:34:52.875Z,29.93
2019-01-18T21:38:16.344Z,27.77
2019-01-18T21:41:22.459Z,33.43
2019-01-18T21:44:12.855Z,27.30
2019-01-18T21:47:09.221Z,31.57
2019-01-18T21:49:53.179Z,39.47
2019-01-18T21:53:04.592Z,26.87
2019-01-18T21:56:13.934Z,33.50
2019-01-18T21:59:17.139Z,27.43
2019-01-18T22:02:00.400Z,27.63
2019-01-18T22:05:28.959Z,26.13
2019-01-18T22:08:40.720Z,26.83
2019-01-18T22:11:29.173Z,26.63
2019-01-18T22:14:15.706Z,26.60
2019-01-18T22:17:12.629Z,32.50
2019-01-18T22:20:11.637Z,38.33
2019-01-18T22:23:01.714Z,27.27
2019-01-18T22:26:18.024Z,32.67
2019-01-18T22:28:56.525Z,31.57
2019-01-18T22:31:50.288Z,30.40
2019-01-18T22:34:40.222Z,37.80
2019-01-18T22:37:30.189Z,33.03
2019-01-18T22:40:27.702Z,27.87
2019-01-18T22:43:23.066Z,30.63
2019-01-18T22:46:07.828Z,44.90
2019-01-18T22:49:26.190Z,23.73
2019-01-18T22:52:32.969Z,28.40
2019-01-18T22:55:48.378Z,26.53
2019-01-18T22:58:52.767Z,31.17
2019-01-18T23:01:58.713Z,29.90
2019-01-18T23:04:43.813Z,34.77
2019-01-18T23:07:41.323Z,37.30
2019-01-18T23:10:59.166Z,28.07
2019-01-18T23:14:14.171Z,32.00
2019-01-18T23:17:26.127Z,22.57
2019-01-18T23:20:54.719Z,28.10
2019-01-18T23:23:49.106Z,29.23
2019-01-18T23:27:05.793Z,37.60
2019-01-18T23:29:59.087Z,32.93
2019-01-18T23:32:54.839Z,45.17
2019-01-18T23:36:03.534Z,29.27
2019-01-18T23:39:28.483Z,29.03
2019-01-18T23:42:44.463Z,32.37
2019-01-18T23:45:54.264Z,30.80
2019-01-18T23:49:04.796Z,26.80
2019-01-18T23:52:04.898Z,27.70
2019-01-18T23:55:09.695Z,25.23
2019-01-18T23:58:20.076Z,25.10
